Time;durP1;ratioP1;P1;durP2;ratioP2;P2;SDS_P1;SDS_P2;PMS_P1;PMS_P2;Temp;Humidity;BMP_temperature;BMP_pressure;BME280_temperature;BME280_humidity;BME280_pressure;Samples;Min_cycle;Max_cycle;Signal;HPM_P1;HPM_P2
2022/12/01 00:00:42;;;;;;;45.00;18.80;;;;;;;7.11;100.00;102694.09;5017453;28;20053;-67
2022/12/01 00:03:08;;;;;;;39.70;19.15;;;;;;;7.14;100.00;102698.31;4997966;28;20516;-66
2022/12/01 00:05:35;;;;;;;46.60;19.83;;;;;;;7.16;100.00;102699.06;5015452;28;20140;-66
2022/12/01 00:08:03;;;;;;;46.13;19.75;;;;;;;7.14;100.00;102698.31;5011355;28;20485;-67
2022/12/01 00:10:32;;;;;;;46.08;20.58;;;;;;;7.16;100.00;102700.84;5012243;28;20136;-66
2022/12/01 00:13:00;;;;;;;44.30;18.75;;;;;;;7.13;100.00;102692.25;4994750;28;20060;-67
2022/12/01 00:15:28;;;;;;;;;;;;;;;7.15;100.00;102694.75;5016330;28;20076;-64
2022/12/01 00:17:54;;;;;;;41.88;18.40;;;;;;;7.08;100.00;102683.81;5015137;28;20018;-66
2022/12/01 00:20:21;;;;;;;44.20;20.25;;;;;;;7.10;100.00;102689.78;5009912;28;20457;-66
2022/12/01 00:22:48;;;;;;;45.70;19.60;;;;;;;7.12;100.00;102692.31;5014600;28;20045;-65
2022/12/01 00:25:17;;;;;;;47.63;19.17;;;;;;;7.15;100.00;102691.31;5005036;28;20115;-65
2022/12/01 00:27:50;;;;;;;44.78;19.88;;;;;;;7.16;100.00;102700.84;5008779;28;20057;-66
2022/12/01 00:30:18;;;;;;;51.33;21.98;;;;;;;7.14;100.00;102690.47;5006307;28;20089;-67
2022/12/01 00:32:45;;;;;;;47.60;20.08;;;;;;;7.14;100.00;102693.09;5014044;28;20072;-66
2022/12/01 00:35:12;;;;;;;44.33;18.52;;;;;;;7.12;100.00;102690.56;5021514;28;20727;-67
2022/12/01 00:37:39;;;;;;;44.92;20.27;;;;;;;7.06;100.00;102680.44;5012223;28;20426;-66
2022/12/01 00:40:06;;;;;;;48.53;20.23;;;;;;;7.11;100.00;102680.19;5013227;28;20526;-66
2022/12/01 00:42:33;;;;;;;52.97;21.30;;;;;;;7.06;100.00;102685.66;5011125;28;20045;-66
2022/12/01 00:44:59;;;;;;;47.00;19.60;;;;;;;7.06;100.00;102685.66;5008029;28;20465;-65
2022/12/01 00:47:26;;;;;;;51.47;21.73;;;;;;;7.06;100.00;102688.25;5019536;28;20697;-66
2022/12/01 00:49:52;;;;;;;45.75;20.90;;;;;;;7.04;100.00;102687.50;5012796;28;20053;-66
2022/12/01 00:52:19;;;;;;;52.13;21.10;;;;;;;7.03;100.00;102691.00;5014673;28;20075;-66
2022/12/01 00:54:45;;;;;;;51.95;21.75;;;;;;;6.99;100.00;102689.47;5005718;28;20112;-66
2022/12/01 00:57:12;;;;;;;46.33;20.98;;;;;;;7.00;100.00;102682.50;5022854;28;20076;-66
2022/12/01 00:59:38;;;;;;;44.53;20.48;;;;;;;6.99;100.00;102681.66;5017130;28;20089;-66
2022/12/01 01:02:06;;;;;;;45.85;21.83;;;;;;;7.01;100.00;102687.63;5013405;28;20041;-66
2022/12/01 01:04:34;;;;;;;51.17;20.80;;;;;;;7.10;100.00;102691.56;5022947;28;20544;-66
2022/12/01 01:07:01;;;;;;;47.28;22.45;;;;;;;7.08;100.00;102688.19;4993768;28;20970;-67
2022/12/01 01:09:27;;;;;;;50.40;21.65;;;;;;;7.12;100.00;102694.94;5017893;28;20065;-66
2022/12/01 01:11:54;;;;;;;43.83;21.83;;;;;;;7.10;100.00;102697.63;5017225;28;20491;-66
2022/12/01 01:14:23;;;;;;;51.45;21.83;;;;;;;7.14;100.00;102685.25;5024715;28;20100;-66
2022/12/01 01:16:49;;;;;;;48.08;21.52;;;;;;;7.11;100.00;102693.22;5021527;28;20047;-65
2022/12/01 01:19:16;;;;;;;44.33;20.15;;;;;;;7.11;100.00;102699.31;5004870;28;20053;-67
2022/12/01 01:21:43;;;;;;;45.25;20.52;;;;;;;7.10;100.00;102700.22;5015697;28;20045;-66
2022/12/01 01:24:09;;;;;;;44.40;19.65;;;;;;;7.07;100.00;102700.38;5017972;28;20057;-66
2022/12/01 01:26:36;;;;;;;48.67;21.05;;;;;;;7.07;100.00;102695.16;5017379;28;20075;-66
2022/12/01 01:29:06;;;;;;;44.17;20.75;;;;;;;7.09;100.00;102701.13;5016022;28;20060;-66
2022/12/01 01:31:33;;;;;;;46.35;20.90;;;;;;;7.06;100.00;102701.31;5015029;28;20045;-66
2022/12/01 01:34:00;;;;;;;44.72;20.05;;;;;;;7.05;100.00;102697.00;5011885;28;20056;-66
2022/12/01 01:36:26;;;;;;;38.72;19.13;;;;;;;7.02;100.00;102701.56;5014454;28;20057;-67
2022/12/01 01:38:54;;;;;;;38.38;19.48;;;;;;;7.04;100.00;102702.31;5018425;28;20053;-67
2022/12/01 01:41:21;;;;;;;48.58;20.40;;;;;;;7.02;100.00;102704.16;5013477;28;20549;-67
2022/12/01 01:43:54;;;;;;;45.83;20.42;;;;;;;7.01;100.00;102707.69;5026895;28;20315;-67
2022/12/01 01:46:23;;;;;;;41.00;20.65;;;;;;;7.00;100.00;102704.22;5014531;28;20045;-67
2022/12/01 01:48:54;;;;;;;39.05;19.35;;;;;;;7.00;100.00;102703.34;5015082;28;20099;-67
2022/12/01 01:51:25;;;;;;;44.33;19.38;;;;;;;7.05;100.00;102717.03;5022957;28;20041;-66
2022/12/01 01:53:55;;;;;;;44.78;20.80;;;;;;;6.99;100.00;102709.50;5021279;28;20110;-67
2022/12/01 01:56:22;;;;;;;45.28;21.00;;;;;;;7.03;100.00;102711.88;5022733;28;20045;-67
2022/12/01 01:58:50;;;;;;;43.13;19.30;;;;;;;6.99;100.00;102707.75;5021030;28;20045;-67
2022/12/01 02:01:17;;;;;;;50.40;22.42;;;;;;;7.00;100.00;102714.66;5008730;28;20620;-67
2022/12/01 02:03:44;;;;;;;45.83;20.90;;;;;;;7.03;100.00;102708.44;5016797;28;20563;-67
2022/12/01 02:06:11;;;;;;;42.47;21.55;;;;;;;7.04;100.00;102710.16;5017575;28;20050;-67
2022/12/01 02:08:37;;;;;;;45.95;20.98;;;;;;;7.01;100.00;102708.50;5030252;28;20060;-67
2022/12/01 02:11:47;;;;;;;46.60;21.48;;;;;;;7.06;100.00;102709.13;5013426;28;20407;-67
2022/12/01 02:14:41;;;;;;;46.33;20.88;;;;;;;7.07;100.00;102707.38;5019678;28;20480;-67
2022/12/01 02:17:38;;;;;;;46.55;21.20;;;;;;;7.07;100.00;102705.59;5011881;28;20848;-66
2022/12/01 02:20:28;;;;;;;43.70;20.67;;;;;;;7.10;100.00;102704.59;5015864;28;20068;-67
2022/12/01 02:23:30;;;;;;;43.90;20.42;;;;;;;7.07;100.00;102705.59;5003787;28;20151;-66
2022/12/01 02:26:15;;;;;;;47.33;21.83;;;;;;;7.02;100.00;102706.75;5025295;28;20745;-67
2022/12/01 02:29:07;;;;;;;40.88;20.08;;;;;;;7.09;100.00;102708.13;5006150;28;20057;-67
2022/12/01 02:31:42;;;;;;;47.65;20.13;;;;;;;7.15;100.00;102709.59;5012028;28;20058;-66
2022/12/01 02:34:42;;;;;;;45.63;20.73;;;;;;;7.10;100.00;102705.44;5000928;28;20481;-66
2022/12/01 02:37:30;;;;;;;48.05;21.58;;;;;;;7.06;100.00;102701.31;5005422;28;20059;-66
2022/12/01 02:40:06;;;;;;;45.22;21.63;;;;;;;7.11;100.00;102701.94;5013717;28;20652;-66
2022/12/01 02:42:52;;;;;;;48.55;21.30;;;;;;;7.11;100.00;102709.75;5015450;28;20490;-67
2022/12/01 02:45:30;;;;;;;45.38;21.30;;;;;;;7.10;100.00;102705.44;5006162;28;20053;-67
2022/12/01 02:48:00;;;;;;;44.13;20.30;;;;;;;7.05;100.00;102698.78;5019715;28;20107;-66
2022/12/01 02:50:30;;;;;;;46.00;21.08;;;;;;;7.09;100.00;102706.34;5019624;28;20608;-66
2022/12/01 02:52:59;;;;;;;46.50;21.48;;;;;;;7.07;100.00;102705.59;5021009;28;20594;-66
2022/12/01 02:55:25;;;;;;;43.30;20.90;;;;;;;7.04;100.00;102705.75;5011644;28;20049;-66
2022/12/01 02:57:51;;;;;;;47.63;22.80;;;;;;;7.05;100.00;102706.59;5002604;28;20461;-66
2022/12/01 03:00:18;;;;;;;45.50;21.25;;;;;;;7.08;100.00;102707.28;5019340;28;20053;-66
2022/12/01 03:03:03;;;;;;;51.42;23.15;;;;;;;7.10;100.00;102712.44;5016067;28;20537;-66
2022/12/01 03:05:47;;;;;;;46.80;20.98;;;;;;;7.07;100.00;102713.41;5023365;28;20504;-66
2022/12/01 03:08:31;;;;;;;55.72;22.45;;;;;;;7.09;100.00;102713.34;5019067;28;20899;-66
2022/12/01 03:10:59;;;;;;;49.58;21.02;;;;;;;7.04;100.00;102708.38;5012084;28;20069;-66
2022/12/01 03:13:37;;;;;;;47.53;22.02;;;;;;;7.10;100.00;102715.06;5009319;28;20049;-65
2022/12/01 03:16:20;;;;;;;45.55;21.00;;;;;;;7.08;100.00;102712.50;5014128;28;20107;-65
2022/12/01 03:18:52;;;;;;;44.88;22.10;;;;;;;7.04;100.00;102717.97;5023745;28;20049;-65
2022/12/01 03:21:21;;;;;;;48.40;21.95;;;;;;;7.02;100.00;102714.59;5020181;28;20128;-65
2022/12/01 03:23:54;;;;;;;49.83;22.08;;;;;;;7.08;100.00;102715.13;5026394;28;20191;-65
2022/12/01 03:26:23;;;;;;;47.15;20.73;;;;;;;7.03;100.00;102714.50;5007919;28;20056;-65
2022/12/01 03:28:53;;;;;;;47.80;20.55;;;;;;;7.04;100.00;102710.97;5012385;28;20053;-66
2022/12/01 03:31:27;;;;;;;50.42;22.60;;;;;;;7.07;100.00;102717.81;5025085;28;20532;-67
2022/12/01 03:33:59;;;;;;;49.47;22.42;;;;;;;7.09;100.00;102706.34;5020253;28;20050;-66
2022/12/01 03:36:31;;;;;;;47.47;21.98;;;;;;;7.13;100.00;102709.66;5015782;28;20045;-66
2022/12/01 03:39:05;;;;;;;53.70;22.92;;;;;;;7.13;100.00;102707.06;5018074;28;20056;-66
2022/12/01 03:41:40;;;;;;;54.15;23.35;;;;;;;7.12;100.00;102701.00;5021300;28;20061;-66
2022/12/01 03:44:19;;;;;;;53.60;22.42;;;;;;;7.13;100.00;102707.91;5017145;28;20512;-65
2022/12/01 03:46:52;;;;;;;52.90;22.65;;;;;;;7.09;100.00;102706.34;5019536;28;20049;-66
2022/12/01 03:49:23;;;;;;;50.80;21.88;;;;;;;7.09;100.00;102706.34;5022712;28;20092;-66
2022/12/01 03:52:11;;;;;;;53.45;23.23;;;;;;;7.10;100.00;102708.06;5001803;28;20057;-65
2022/12/01 03:55:10;;;;;;;49.67;21.52;;;;;;;7.09;100.00;102708.97;4993280;28;20683;-66
2022/12/01 03:57:44;;;;;;;47.25;21.55;;;;;;;7.06;100.00;102708.31;5013432;28;20107;-65
2022/12/01 04:00:14;;;;;;;45.63;20.90;;;;;;;7.05;100.00;102710.03;5014902;28;20052;-65
2022/12/01 04:02:40;;;;;;;46.72;21.20;;;;;;;7.05;100.00;102717.03;5019847;28;20073;-66
2022/12/01 04:05:09;;;;;;;44.92;21.35;;;;;;;7.03;100.00;102717.09;5017824;28;20503;-65
2022/12/01 04:07:37;;;;;;;47.42;21.83;;;;;;;7.00;100.00;102726.84;5012171;28;20045;-66
2022/12/01 04:10:04;;;;;;;51.58;21.42;;;;;;;7.03;100.00;102719.72;5020460;28;20046;-65
2022/12/01 04:12:32;;;;;;;47.55;21.25;;;;;;;7.03;100.00;102727.53;5002121;28;20432;-66
2022/12/01 04:15:04;;;;;;;52.92;23.25;;;;;;;7.01;100.00;102724.16;5015280;28;20048;-66
2022/12/01 04:17:30;;;;;;;53.17;23.10;;;;;;;7.00;100.00;102721.63;5006306;28;20049;-66
2022/12/01 04:19:57;;;;;;;50.08;21.15;;;;;;;7.00;100.00;102719.03;5016048;28;20509;-65
2022/12/01 04:22:24;;;;;;;46.25;19.83;;;;;;;6.99;100.00;102720.78;5017965;28;20096;-66
2022/12/01 04:24:50;;;;;;;47.30;21.92;;;;;;;6.97;100.00;102716.56;5004079;28;20069;-66
2022/12/01 04:27:17;;;;;;;50.83;21.63;;;;;;;6.99;100.00;102717.34;5027125;28;20045;-65
2022/12/01 04:29:44;;;;;;;50.60;21.30;;;;;;;7.01;100.00;102721.56;5010313;28;20493;-66
2022/12/01 04:32:11;;;;;;;48.47;20.75;;;;;;;7.03;100.00;102716.28;5007617;28;20041;-65
2022/12/01 04:34:37;;;;;;;45.65;21.08;;;;;;;7.04;100.00;102720.59;4990977;28;20049;-65
2022/12/01 04:37:04;;;;;;;44.35;20.00;;;;;;;7.04;100.00;102721.41;5024433;28;20053;-65
2022/12/01 04:39:31;;;;;;;47.28;21.70;;;;;;;7.03;100.00;102719.72;5023229;28;20055;-65
2022/12/01 04:41:57;;;;;;;53.67;23.17;;;;;;;7.00;100.00;102711.19;5018319;28;20061;-66
2022/12/01 04:44:24;;;;;;;48.03;21.85;;;;;;;7.00;100.00;102719.03;5021055;28;20057;-65
2022/12/01 04:46:56;;;;;;;54.08;22.38;;;;;;;6.97;100.00;102716.56;5010387;28;20049;-65
2022/12/01 04:49:23;;;;;;;51.45;22.25;;;;;;;6.98;100.00;102708.69;5007618;28;20553;-66
2022/12/01 04:51:50;;;;;;;47.22;21.25;;;;;;;6.93;100.00;102714.09;5022570;28;20721;-66
2022/12/01 04:54:17;;;;;;;52.67;21.98;;;;;;;6.91;100.00;102710.72;5014110;28;20490;-66
2022/12/01 04:56:43;;;;;;;50.95;22.75;;;;;;;6.95;100.00;102718.41;5021432;28;20037;-66
2022/12/01 04:59:10;;;;;;;52.50;23.38;;;;;;;6.92;100.00;102711.59;5014626;28;20501;-65
2022/12/01 05:01:37;;;;;;;47.08;21.55;;;;;;;6.91;100.00;102705.50;5008640;28;20057;-65
2022/12/01 05:04:03;;;;;;;53.08;23.20;;;;;;;6.88;100.00;102710.91;5007136;28;20058;-66
2022/12/01 05:06:30;;;;;;;54.20;23.63;;;;;;;6.88;100.00;102713.50;5015595;28;20081;-66
2022/12/01 05:08:59;;;;;;;49.63;23.30;;;;;;;6.92;100.00;102719.44;5012169;28;20053;-66
2022/12/01 05:11:27;;;;;;;44.13;20.60;;;;;;;6.92;100.00;102715.03;5015553;28;20048;-65
2022/12/01 05:13:54;;;;;;;46.90;22.17;;;;;;;6.90;100.00;102708.22;5019087;28;20136;-65
2022/12/01 05:16:23;;;;;;;48.90;22.00;;;;;;;6.91;100.00;102707.28;5007126;28;20403;-65
2022/12/01 05:21:39;;;;;;;49.20;21.35;;;;;;;6.87;100.00;102716.19;5009829;28;20541;-66
2022/12/01 05:24:06;;;;;;;46.97;21.20;;;;;;;6.87;100.00;102722.25;5003319;28;20060;-65
2022/12/01 05:26:33;;;;;;;49.03;21.48;;;;;;;6.81;100.00;102716.50;5020889;28;20103;-66
2022/12/01 05:28:59;;;;;;;39.15;19.63;;;;;;;6.80;100.00;102714.78;5001172;28;20050;-65
2022/12/01 05:31:26;;;;;;;36.92;18.05;;;;;;;6.81;100.00;102719.09;5010144;28;20049;-65
2022/12/01 05:33:52;;;;;;;42.13;19.50;;;;;;;6.84;100.00;102713.72;5020992;28;20053;-66
2022/12/01 05:36:19;;;;;;;45.05;21.02;;;;;;;6.81;100.00;102716.50;5013138;28;20049;-65
2022/12/01 05:38:45;;;;;;;43.65;20.83;;;;;;;6.81;100.00;102712.13;5010593;28;20567;-65
2022/12/01 05:41:12;;;;;;;42.78;20.20;;;;;;;6.87;100.00;102721.41;5013940;28;20081;-65
2022/12/01 05:43:38;;;;;;;46.08;20.42;;;;;;;6.87;100.00;102729.22;5003719;28;20049;-65
2022/12/01 05:46:05;;;;;;;50.08;21.73;;;;;;;6.84;100.00;102721.53;5015312;28;20045;-65
2022/12/01 05:48:31;;;;;;;46.30;20.88;;;;;;;6.84;100.00;102732.84;5019758;28;20057;-65
2022/12/01 05:50:58;;;;;;;43.40;20.92;;;;;;;6.81;100.00;102729.53;5016299;28;20050;-65
2022/12/01 05:53:24;;;;;;;44.42;20.42;;;;;;;6.82;100.00;102726.88;5019793;28;20060;-66
2022/12/01 05:55:52;;;;;;;39.50;20.30;;;;;;;6.84;100.00;102721.53;5016827;28;20064;-66
2022/12/01 05:58:19;;;;;;;39.90;19.77;;;;;;;6.84;100.00;102727.63;5011218;28;20059;-66
2022/12/01 06:00:46;;;;;;;42.80;20.17;;;;;;;6.80;100.00;102726.09;5015680;28;20294;-65
2022/12/01 06:03:13;;;;;;;45.38;20.33;;;;;;;6.80;100.00;102733.06;5002431;28;20057;-65
2022/12/01 06:05:39;;;;;;;47.55;21.75;;;;;;;6.78;100.00;102732.28;5008186;28;20053;-66
2022/12/01 06:08:06;;;;;;;40.88;20.67;;;;;;;6.79;100.00;102737.44;5004995;28;20050;-65
2022/12/01 06:10:33;;;;;;;43.47;20.60;;;;;;;6.73;100.00;102740.34;5018315;28;20068;-65
2022/12/01 06:12:59;;;;;;;50.50;22.92;;;;;;;6.74;100.00;102739.41;5016671;28;20129;-66
2022/12/01 06:15:26;;;;;;;44.42;20.90;;;;;;;6.72;100.00;102738.63;5002567;28;20061;-66
2022/12/01 06:17:52;;;;;;;46.55;22.23;;;;;;;6.72;100.00;102739.50;5018812;28;20041;-65
2022/12/01 06:20:19;;;;;;;46.20;22.73;;;;;;;6.70;100.00;102735.25;5017940;28;20053;-66
2022/12/01 06:22:45;;;;;;;48.20;22.30;;;;;;;6.72;100.00;102741.25;5016794;28;20058;-66
2022/12/01 06:25:12;;;;;;;46.85;22.42;;;;;;;6.74;100.00;102744.63;5013169;28;20053;-66
2022/12/01 06:27:38;;;;;;;49.80;22.25;;;;;;;6.73;100.00;102740.34;5013425;28;20580;-66
2022/12/01 06:30:05;;;;;;;47.53;22.80;;;;;;;6.75;100.00;102746.31;5009255;28;20182;-65
2022/12/01 06:32:32;;;;;;;46.40;21.60;;;;;;;6.71;100.00;102745.63;5008362;28;20049;-66
2022/12/01 06:34:58;;;;;;;50.60;23.00;;;;;;;6.72;100.00;102752.53;5023264;28;20054;-66
2022/12/01 06:37:26;;;;;;;48.40;22.55;;;;;;;6.72;100.00;102749.06;5006106;28;20060;-66
2022/12/01 06:39:53;;;;;;;48.42;22.48;;;;;;;6.71;100.00;102753.44;5018008;28;20060;-65
2022/12/01 06:42:19;;;;;;;44.10;22.20;;;;;;;6.72;100.00;102756.91;5022198;28;20050;-65
2022/12/01 06:44:45;;;;;;;46.40;21.42;;;;;;;6.69;100.00;102754.44;5017704;28;20099;-65
2022/12/01 06:47:12;;;;;;;47.13;21.92;;;;;;;6.72;100.00;102755.16;5014423;28;20041;-65
2022/12/01 06:49:38;;;;;;;51.65;23.10;;;;;;;6.72;100.00;102751.69;5002305;28;20470;-66
2022/12/01 06:52:04;;;;;;;50.30;23.27;;;;;;;6.75;100.00;102758.53;5006480;28;20050;-66
2022/12/01 06:54:32;;;;;;;53.47;24.02;;;;;;;6.73;100.00;102756.81;4998435;28;20053;-65
2022/12/01 06:56:58;;;;;;;48.05;23.17;;;;;;;6.70;100.00;102758.72;5017105;28;20053;-66
2022/12/01 06:59:25;;;;;;;51.15;21.90;;;;;;;6.71;100.00;102761.28;5024199;28;20081;-65
2022/12/01 07:01:51;;;;;;;55.50;24.38;;;;;;;6.69;100.00;102763.13;5008098;28;20129;-66
2022/12/01 07:04:18;;;;;;;45.53;22.13;;;;;;;6.71;100.00;102765.66;5015686;28;20073;-65
2022/12/01 07:06:44;;;;;;;48.40;23.05;;;;;;;6.67;100.00;102764.13;5004322;28;20596;-65
2022/12/01 07:09:11;;;;;;;48.42;23.33;;;;;;;6.64;100.00;102766.84;5026003;28;20062;-65
2022/12/01 07:11:37;;;;;;;52.20;23.30;;;;;;;6.62;100.00;102763.47;5019849;28;20099;-65
2022/12/01 07:14:04;;;;;;;53.05;23.70;;;;;;;6.59;100.00;102767.09;5015003;28;20045;-64
2022/12/01 07:16:30;;;;;;;53.47;23.45;;;;;;;6.60;100.00;102770.53;5019462;28;20398;-65
2022/12/01 07:18:58;;;;;;;55.60;22.70;;;;;;;6.59;100.00;102768.84;5010034;28;20575;-66
2022/12/01 07:21:25;;;;;;;55.25;24.77;;;;;;;6.53;100.00;102773.44;5003749;28;20092;-66
2022/12/01 07:23:51;;;;;;;49.35;23.73;;;;;;;6.53;100.00;102769.97;5014978;28;20045;-65
2022/12/01 07:26:17;;;;;;;50.50;24.42;;;;;;;6.56;100.00;102774.19;5010185;28;20429;-66
2022/12/01 07:28:44;;;;;;;56.60;25.67;;;;;;;6.56;100.00;102775.03;5008859;28;21081;-65
2022/12/01 07:31:16;;;;;;;52.50;25.95;;;;;;;6.60;100.00;102779.19;5008901;28;20057;-65
2022/12/01 07:33:43;;;;;;;52.75;24.33;;;;;;;6.53;100.00;102780.41;5012523;28;20932;-66
2022/12/01 07:36:11;;;;;;;50.97;23.35;;;;;;;6.54;100.00;102782.09;5014757;28;20053;-65
2022/12/01 07:38:38;;;;;;;62.88;27.77;;;;;;;6.53;100.00;102785.63;5008436;28;20120;-66
2022/12/01 07:41:10;;;;;;;60.95;27.70;;;;;;;6.54;100.00;102785.53;5020009;28;20064;-65
2022/12/01 07:43:37;;;;;;;62.22;25.88;;;;;;;6.52;100.00;102781.31;5019481;28;20137;-66
2022/12/01 07:46:11;;;;;;;57.90;24.67;;;;;;;6.58;100.00;102772.38;5022537;28;20666;-66
2022/12/01 07:48:44;;;;;;;56.92;24.92;;;;;;;6.53;100.00;102776.03;5000357;28;20690;-65
2022/12/01 07:51:16;;;;;;;53.28;23.65;;;;;;;6.56;100.00;102782.84;5007399;28;20060;-65
2022/12/01 07:53:44;;;;;;;52.20;25.38;;;;;;;6.59;100.00;102785.34;5020478;28;20493;-66
2022/12/01 07:56:11;;;;;;;55.63;24.75;;;;;;;6.60;100.00;102783.56;5029108;28;20053;-66
2022/12/01 07:58:38;;;;;;;52.33;23.50;;;;;;;6.61;100.00;102780.91;5014486;28;20529;-65
2022/12/01 08:01:11;;;;;;;60.45;26.23;;;;;;;6.65;100.00;102779.81;5016960;28;20049;-65
2022/12/01 08:03:37;;;;;;;57.55;25.92;;;;;;;6.66;100.00;102794.53;5022127;28;20069;-65
2022/12/01 08:06:05;;;;;;;56.75;25.17;;;;;;;6.66;100.00;102789.31;5006382;28;20420;-65
2022/12/01 08:08:35;;;;;;;63.08;25.60;;;;;;;6.71;100.00;102797.78;5020741;28;20038;-65
2022/12/01 08:11:12;;;;;;;56.22;24.20;;;;;;;6.68;100.00;102790.13;5010619;28;20049;-65
2022/12/01 08:13:40;;;;;;;58.35;24.85;;;;;;;6.71;100.00;102797.78;5013382;28;20422;-66
2022/12/01 08:16:09;;;;;;;58.63;24.80;;;;;;;6.72;100.00;102798.63;4998146;28;20054;-66
2022/12/01 08:18:37;;;;;;;59.58;25.63;;;;;;;6.76;100.00;102801.94;5021015;28;20406;-65
2022/12/01 08:21:05;;;;;;;62.17;24.15;;;;;;;6.81;100.00;102795.59;5014938;28;20053;-67
2022/12/01 08:23:32;;;;;;;58.95;25.50;;;;;;;6.82;100.00;102794.69;5013652;28;20123;-66
2022/12/01 08:26:08;;;;;;;58.55;26.27;;;;;;;6.86;100.00;102792.75;5021768;28;20136;-66
2022/12/01 08:28:35;;;;;;;58.03;25.52;;;;;;;6.85;100.00;102799.75;5008819;28;20085;-66
2022/12/01 08:31:11;;;;;;;62.85;24.80;;;;;;;6.89;100.00;102801.28;5013098;28;20061;-66
2022/12/01 08:33:37;;;;;;;53.58;23.20;;;;;;;6.87;100.00;102795.28;5012514;28;20512;-66
2022/12/01 08:36:04;;;;;;;62.42;25.73;;;;;;;6.91;100.00;102798.59;5023075;28;20049;-65
2022/12/01 08:38:31;;;;;;;62.63;24.70;;;;;;;6.94;100.00;102801.06;5023766;28;20589;-66
2022/12/01 08:41:00;;;;;;;55.58;24.92;;;;;;;6.95;100.00;102801.91;5011875;28;20057;-66
2022/12/01 08:43:26;;;;;;;52.80;23.90;;;;;;;6.96;100.00;102809.66;5001053;28;20049;-66
2022/12/01 08:46:13;;;;;;;62.08;23.98;;;;;;;7.03;100.00;102815.44;5018457;28;20375;-65
2022/12/01 08:48:40;;;;;;;57.38;24.50;;;;;;;7.02;100.00;102811.13;5010605;28;20399;-66
2022/12/01 08:51:09;;;;;;;62.70;26.02;;;;;;;7.03;100.00;102805.00;5005755;28;20046;-65
2022/12/01 08:53:38;;;;;;;59.50;24.08;;;;;;;7.06;100.00;102812.69;5014288;28;20091;-65
2022/12/01 08:56:12;;;;;;;54.45;24.35;;;;;;;7.04;100.00;102812.75;5024081;28;20049;-66
2022/12/01 08:58:39;;;;;;;70.05;27.00;;;;;;;7.04;100.00;102810.13;5019316;28;20050;-65
2022/12/01 09:01:08;;;;;;;67.43;26.75;;;;;;;7.08;100.00;102803.84;5015613;28;20050;-66
2022/12/01 09:03:36;;;;;;;66.05;25.75;;;;;;;7.04;100.00;102812.75;5008966;28;20053;-65
2022/12/01 09:06:05;;;;;;;56.60;25.67;;;;;;;7.07;100.00;102822.19;5014169;28;20054;-65
2022/12/01 09:08:33;;;;;;;58.65;26.65;;;;;;;7.07;100.00;102817.81;5004934;28;20068;-66
2022/12/01 09:11:03;;;;;;;57.45;23.67;;;;;;;7.13;100.00;102816.66;5020275;28;20053;-65
2022/12/01 09:13:31;;;;;;;64.18;26.90;;;;;;;7.15;100.00;102821.81;5018180;28;20053;-66
2022/12/01 09:16:04;;;;;;;61.90;25.55;;;;;;;7.19;100.00;102815.53;5007428;28;20073;-65
2022/12/01 09:18:31;;;;;;;58.50;25.55;;;;;;;7.20;100.00;102822.44;5010241;28;20556;-66
2022/12/01 09:20:58;;;;;;;63.03;26.10;;;;;;;7.21;100.00;102816.28;5012136;28;20057;-65
2022/12/01 09:23:25;;;;;;;63.38;25.88;;;;;;;7.23;100.00;102817.06;5020210;28;20402;-65
2022/12/01 09:25:52;;;;;;;68.60;25.48;;;;;;;7.21;100.00;102814.50;5011123;28;20042;-65
2022/12/01 09:28:19;;;;;;;57.92;24.55;;;;;;;7.24;100.00;102814.38;5018639;28;20410;-65
2022/12/01 09:30:46;;;;;;;60.72;24.75;;;;;;;7.25;100.00;102808.25;5014375;28;20100;-65
2022/12/01 09:33:12;;;;;;;49.17;21.55;;;;;;;7.28;100.00;102815.91;5013188;28;20050;-65
2022/12/01 09:35:39;;;;;;;58.47;23.98;;;;;;;7.33;100.00;102807.84;5010151;28;20053;-66
2022/12/01 09:38:05;;;;;;;58.22;23.42;;;;;;;7.37;100.00;102818.97;5009768;28;20060;-65
2022/12/01 09:40:36;;;;;;;55.50;22.42;;;;;;;7.41;100.00;102818.78;5020562;28;20045;-65
2022/12/01 09:43:12;;;;;;;55.70;23.20;;;;;;;7.46;100.00;102821.97;5006649;28;20054;-65
2022/12/01 09:45:44;;;;;;;53.60;22.38;;;;;;;7.50;100.00;102820.06;5009789;28;20505;-65
2022/12/01 09:48:22;;;;;;;56.40;25.02;;;;;;;7.54;100.00;102813.75;5020991;28;20053;-66
2022/12/01 09:50:48;;;;;;;54.30;22.95;;;;;;;7.51;100.00;102820.00;5022158;28;20045;-66
2022/12/01 09:53:20;;;;;;;58.67;24.38;;;;;;;7.55;100.00;102820.69;5018831;28;20056;-66
2022/12/01 09:55:47;;;;;;;62.65;25.70;;;;;;;7.56;100.00;102811.06;5017142;28;20427;-66
2022/12/01 09:58:19;;;;;;;57.28;24.55;;;;;;;7.56;100.00;102811.91;5017478;28;20049;-65
2022/12/01 10:00:48;;;;;;;58.78;23.90;;;;;;;7.57;100.00;102818.00;5017649;28;20049;-65
2022/12/01 10:03:31;;;;;;;57.38;26.67;;;;;;;7.64;100.00;102814.97;5022277;28;20064;-65
2022/12/01 10:06:09;;;;;;;54.83;24.38;;;;;;;7.65;100.00;102810.63;5010878;28;20061;-65
2022/12/01 10:09:19;;;;;;;57.83;26.30;;;;;;;7.60;100.00;102808.22;5020248;28;20049;-65
2022/12/01 10:11:47;;;;;;;55.88;24.13;;;;;;;7.60;100.00;102803.00;5013389;28;20057;-65
2022/12/01 10:14:16;;;;;;;56.83;24.20;;;;;;;7.60;100.00;102799.53;5010970;28;20537;-65
2022/12/01 10:17:17;;;;;;;58.95;25.38;;;;;;;7.58;100.00;102798.78;5019909;28;20046;-66
2022/12/01 10:20:10;;;;;;;62.20;25.48;;;;;;;7.55;100.00;102793.69;4998322;28;20061;-65
2022/12/01 10:23:04;;;;;;;51.00;22.58;;;;;;;7.63;100.00;102795.00;5020125;28;20084;-65
2022/12/01 10:25:41;;;;;;;56.33;24.73;;;;;;;7.69;100.00;102797.31;4990151;28;20049;-66
2022/12/01 10:28:38;;;;;;;53.80;25.35;;;;;;;7.72;100.00;102796.28;5012074;28;20053;-65
2022/12/01 10:31:19;;;;;;;56.65;24.58;;;;;;;7.72;100.00;102791.06;5014495;28;20457;-66
2022/12/01 10:33:57;;;;;;;60.42;24.85;;;;;;;7.72;100.00;102789.31;5024818;28;20405;-66
2022/12/01 10:36:25;;;;;;;53.95;24.10;;;;;;;7.71;100.00;102785.00;5009510;28;20116;-65
2022/12/01 10:38:51;;;;;;;52.57;23.70;;;;;;;7.72;100.00;102778.00;5019612;28;20049;-65
2022/12/01 10:41:21;;;;;;;51.33;24.23;;;;;;;7.80;100.00;102775.00;5011974;28;20068;-65
2022/12/01 10:43:51;;;;;;;45.15;21.60;;;;;;;7.86;100.00;102777.28;5030272;28;20061;-66
2022/12/01 10:46:26;;;;;;;50.20;23.00;;;;;;;7.93;100.00;102776.03;5026740;28;20844;-66
2022/12/01 10:48:58;;;;;;;51.53;24.17;;;;;;;7.94;100.00;102772.53;5021393;28;20046;-65
2022/12/01 10:51:26;;;;;;;53.20;23.73;;;;;;;8.07;100.00;102772.69;5027977;28;20410;-68
2022/12/01 10:54:07;;;;;;;49.65;22.85;;;;;;;8.20;100.00;102772.91;5021171;28;20045;-66
2022/12/01 10:56:38;;;;;;;51.10;24.13;;;;;;;8.20;100.00;102768.50;5018112;28;20042;-66
2022/12/01 10:59:23;;;;;;;56.60;24.83;;;;;;;8.24;100.00;102766.56;5025142;28;20087;-65
2022/12/01 11:01:49;;;;;;;50.25;24.58;;;;;;;8.18;100.00;102774.75;5029450;28;20505;-66
2022/12/01 11:04:43;;;;;;;49.10;23.85;;;;;;;8.16;100.00;102774.81;5014569;28;20045;-67
2022/12/01 11:07:21;;;;;;;51.97;23.35;;;;;;;8.13;100.00;102777.59;5005895;28;20060;-66
2022/12/01 11:10:01;;;;;;;51.58;23.80;;;;;;;8.12;100.00;102774.13;5017235;28;20136;-66
2022/12/01 11:12:28;;;;;;;46.50;22.77;;;;;;;8.08;100.00;102777.84;5026302;28;20879;-66
2022/12/01 11:14:56;;;;;;;48.67;23.92;;;;;;;8.13;100.00;102772.38;5021266;28;20052;-67
2022/12/01 11:17:39;;;;;;;49.83;25.13;;;;;;;8.17;100.00;102779.13;5023559;28;20460;-66
2022/12/01 11:20:27;;;;;;;45.63;22.27;;;;;;;8.23;100.00;102772.72;5014857;28;20052;-66
2022/12/01 11:23:08;;;;;;;46.38;24.30;;;;;;;8.26;100.00;102772.56;5014925;28;20418;-66
2022/12/01 11:25:35;;;;;;;48.08;23.80;;;;;;;8.21;100.00;102771.94;5024376;28;20068;-67
2022/12/01 11:28:03;;;;;;;50.00;24.70;;;;;;;8.25;100.00;102763.88;5022396;28;20061;-66